createdAt,value
2022-09-06T00:01:16.474Z,101890.61
2022-09-06T00:03:46.241Z,101891.13
2022-09-06T00:06:18.062Z,101886.02
2022-09-06T00:08:48.293Z,101890.75
2022-09-06T00:11:18.823Z,101887.02
2022-09-06T00:13:48.438Z,101885.25
2022-09-06T00:16:21.174Z,101880.67
2022-09-06T00:18:53.140Z,101878.91
2022-09-06T00:21:30.060Z,101881.70
2022-09-06T00:23:58.811Z,101881.02
2022-09-06T00:26:27.806Z,101879.63
2022-09-06T00:28:56.526Z,101879.82
2022-09-06T00:31:27.320Z,101878.27
2022-09-06T00:33:55.818Z,101879.01
2022-09-06T00:36:24.827Z,101878.14
2022-09-06T00:38:53.489Z,101875.34
2022-09-06T00:41:22.279Z,101873.95
2022-09-06T00:43:51.478Z,101878.39
2022-09-06T00:46:25.246Z,101882.63
2022-09-06T00:49:01.145Z,101881.61
2022-09-06T00:51:31.580Z,101884.62
2022-09-06T00:54:04.282Z,101881.99
2022-09-06T00:56:35.973Z,101882.71
2022-09-06T00:59:04.900Z,101880.80
2022-09-06T01:01:33.664Z,101880.30
2022-09-06T01:04:03.668Z,101876.28
2022-09-06T01:06:48.890Z,101879.27
2022-09-06T01:09:29.466Z,101877.36
2022-09-06T01:12:15.023Z,101880.00
2022-09-06T01:15:02.548Z,101883.18
2022-09-06T01:18:04.926Z,101878.48
2022-09-06T01:21:10.172Z,101873.06
2022-09-06T01:23:41.901Z,101873.59
2022-09-06T01:26:41.874Z,101873.95
2022-09-06T01:29:38.395Z,101873.60
2022-09-06T01:32:23.874Z,101868.88
2022-09-06T01:35:28.497Z,101864.32
2022-09-06T01:37:58.383Z,101862.94
2022-09-06T01:40:28.633Z,101861.55
2022-09-06T01:42:58.551Z,101862.09
2022-09-06T01:45:44.940Z,101863.66
2022-09-06T01:48:41.389Z,101863.14
2022-09-06T01:51:37.722Z,101863.99
2022-09-06T01:54:25.283Z,101862.94
2022-09-06T01:57:20.765Z,101860.47
2022-09-06T02:00:12.504Z,101861.67
2022-09-06T02:02:56.372Z,101857.63
2022-09-06T02:05:28.152Z,101857.29
2022-09-06T02:08:02.160Z,101855.17
2022-09-06T02:10:43.090Z,101857.44
2022-09-06T02:13:14.654Z,101857.28
2022-09-06T02:16:01.591Z,101853.94
2022-09-06T02:18:48.718Z,101849.58
2022-09-06T02:21:22.577Z,101851.16
2022-09-06T02:23:53.515Z,101850.63
2022-09-06T02:26:26.417Z,101853.98
2022-09-06T02:28:56.017Z,101861.15
2022-09-06T02:32:00.044Z,101862.23
2022-09-06T02:34:29.459Z,101864.36
2022-09-06T02:36:58.733Z,101865.94
2022-09-06T02:39:27.542Z,101865.77
2022-09-06T02:41:56.741Z,101867.36
2022-09-06T02:44:25.504Z,101868.06
2022-09-06T02:46:57.125Z,101868.95
2022-09-06T02:49:26.359Z,101869.66
2022-09-06T02:51:55.310Z,101867.39
2022-09-06T02:54:24.550Z,101866.88
2022-09-06T02:56:53.546Z,101864.58
2022-09-06T02:59:22.385Z,101866.52
2022-09-06T03:01:51.331Z,101864.77
2022-09-06T03:04:20.119Z,101861.27
2022-09-06T03:06:48.857Z,101860.05
2022-09-06T03:09:17.491Z,101859.16
2022-09-06T03:11:46.485Z,101864.26
2022-09-06T03:14:17.462Z,101867.06
2022-09-06T03:16:46.184Z,101865.66
2022-09-06T03:19:15.010Z,101862.51
2022-09-06T03:21:43.833Z,101863.20
2022-09-06T03:24:12.682Z,101865.33
2022-09-06T03:26:41.373Z,101865.84
2022-09-06T03:29:11.490Z,101867.42
2022-09-06T03:31:40.275Z,101868.30
2022-09-06T03:34:11.122Z,101864.79
2022-09-06T03:36:40.313Z,101864.61
2022-09-06T03:39:09.100Z,101868.27
2022-09-06T03:41:38.673Z,101872.49
2022-09-06T03:44:07.332Z,101877.91
2022-09-06T03:46:35.881Z,101882.98
2022-09-06T03:49:04.978Z,101880.72
2022-09-06T03:51:33.765Z,101884.77
2022-09-06T03:54:02.949Z,101884.23
2022-09-06T03:56:31.651Z,101887.22
2022-09-06T03:59:00.439Z,101887.38
2022-09-06T04:01:29.589Z,101888.78
2022-09-06T04:03:58.425Z,101886.87
2022-09-06T04:06:27.316Z,101883.02
2022-09-06T04:08:56.003Z,101885.48
2022-09-06T04:11:24.697Z,101884.08
2022-09-06T04:13:53.324Z,101878.98
2022-09-06T04:16:22.276Z,101878.45
2022-09-06T04:18:51.269Z,101877.05
2022-09-06T04:21:19.994Z,101875.64
2022-09-06T04:23:48.945Z,101873.19
2022-09-06T04:26:17.838Z,101873.52
2022-09-06T04:28:46.845Z,101875.80
2022-09-06T04:31:15.512Z,101880.19
2022-09-06T04:33:44.404Z,101880.89
2022-09-06T04:36:13.576Z,101879.13
2022-09-06T04:38:45.256Z,101880.14
2022-09-06T04:41:16.009Z,101878.52
2022-09-06T04:43:45.426Z,101878.29
2022-09-06T04:46:27.401Z,101884.21
2022-09-06T04:48:57.622Z,101882.21
2022-09-06T04:51:26.541Z,101885.49
2022-09-06T04:53:55.299Z,101887.35
2022-09-06T04:56:25.836Z,101879.04
2022-09-06T04:58:56.068Z,101876.35
2022-09-06T05:01:26.771Z,101874.67
2022-09-06T05:03:57.110Z,101875.81
2022-09-06T05:06:26.720Z,101872.05
2022-09-06T05:08:55.527Z,101871.28
2022-09-06T05:11:24.554Z,101872.63
2022-09-06T05:13:53.193Z,101875.05
2022-09-06T05:16:21.929Z,101873.41
2022-09-06T05:18:50.827Z,101874.75
2022-09-06T05:21:19.455Z,101875.04
2022-09-06T05:23:48.243Z,101872.00
2022-09-06T05:26:16.829Z,101871.42
2022-09-06T05:28:45.626Z,101869.27
2022-09-06T05:31:28.111Z,101868.52
2022-09-06T05:33:58.061Z,101865.85
2022-09-06T05:36:28.448Z,101869.17
2022-09-06T05:38:58.062Z,101868.77
2022-09-06T05:41:27.612Z,101867.46
2022-09-06T05:43:56.274Z,101866.62
2022-09-06T05:46:24.955Z,101861.23
2022-09-06T05:49:00.808Z,101860.11
2022-09-06T05:51:29.425Z,101859.11
2022-09-06T05:53:58.287Z,101854.14
2022-09-06T05:56:26.995Z,101849.80
2022-09-06T05:58:56.158Z,101850.14
2022-09-06T06:01:29.182Z,101854.23
2022-09-06T06:04:03.835Z,101855.58
2022-09-06T06:06:34.967Z,101855.82
2022-09-06T06:09:04.330Z,101858.42
2022-09-06T06:11:37.304Z,101860.03
2022-09-06T06:14:06.147Z,101860.98
2022-09-06T06:16:35.041Z,101865.52
2022-09-06T06:19:03.898Z,101864.11
2022-09-06T06:21:33.889Z,101864.09
2022-09-06T06:24:04.628Z,101868.89
2022-09-06T06:26:35.680Z,101867.60
2022-09-06T06:29:08.314Z,101869.71
2022-09-06T06:31:38.616Z,101872.36
2022-09-06T06:34:08.627Z,101874.83
2022-09-06T06:36:37.851Z,101874.44
2022-09-06T06:39:08.869Z,101871.45
2022-09-06T06:41:38.155Z,101873.21
2022-09-06T06:44:14.206Z,101873.75
2022-09-06T06:46:43.307Z,101876.21
2022-09-06T06:49:12.339Z,101880.81
2022-09-06T06:51:41.803Z,101883.81
2022-09-06T06:54:10.397Z,101885.59
2022-09-06T06:56:45.219Z,101888.71
2022-09-06T06:59:14.139Z,101890.98
2022-09-06T07:01:43.100Z,101888.80
2022-09-06T07:04:12.711Z,101886.27
2022-09-06T07:12:29.562Z,101891.78
2022-09-06T07:14:58.144Z,101894.57
2022-09-06T07:17:26.859Z,101891.34
2022-09-06T07:22:44.275Z,101892.58
2022-09-06T07:25:17.622Z,101890.23
2022-09-06T07:27:50.367Z,101889.76
2022-09-06T07:30:20.429Z,101887.73
2022-09-06T07:32:49.200Z,101893.84
2022-09-06T07:35:17.953Z,101892.66
2022-09-06T07:37:54.713Z,101895.71
2022-09-06T07:40:25.301Z,101891.86
2022-09-06T07:42:58.193Z,101893.69
2022-09-06T07:45:27.487Z,101895.92
2022-09-06T07:47:59.358Z,101891.85
2022-09-06T07:50:48.034Z,101892.25
2022-09-06T07:53:27.751Z,101891.73
2022-09-06T07:56:01.722Z,101880.64
2022-09-06T07:58:31.736Z,101877.35
2022-09-06T08:01:17.824Z,101878.48
2022-09-06T08:03:47.661Z,101876.73
2022-09-06T08:06:16.431Z,101873.30
2022-09-06T08:09:00.531Z,101863.49
2022-09-06T08:11:32.046Z,101862.84
2022-09-06T08:14:02.999Z,101862.73
2022-09-06T08:16:34.114Z,101865.61
2022-09-06T08:19:05.531Z,101864.86
2022-09-06T08:21:35.481Z,101861.86
2022-09-06T08:24:07.244Z,101859.77
2022-09-06T08:26:39.826Z,101856.02
2022-09-06T08:29:09.686Z,101855.92
2022-09-06T08:31:41.579Z,101851.10
2022-09-06T08:34:13.025Z,101848.73
2022-09-06T08:36:42.556Z,101846.70
2022-09-06T08:39:11.909Z,101844.19
2022-09-06T08:41:55.911Z,101841.02
2022-09-06T08:44:57.743Z,101843.14
2022-09-06T08:47:27.375Z,101839.58
2022-09-06T08:50:01.226Z,101833.61
2022-09-06T08:53:06.537Z,101832.05
2022-09-06T08:55:50.470Z,101831.77
2022-09-06T08:58:40.560Z,101827.98
2022-09-06T09:01:19.680Z,101824.02
2022-09-06T09:03:48.602Z,101820.04
2022-09-06T09:06:17.009Z,101813.34
2022-09-06T09:09:04.390Z,101816.71
2022-09-06T09:11:36.660Z,101815.20
2022-09-06T09:14:36.481Z,101816.36
2022-09-06T09:17:29.706Z,101810.23
2022-09-06T09:19:58.435Z,101812.49
2022-09-06T09:22:28.231Z,101817.05
2022-09-06T09:25:00.574Z,101817.64
2022-09-06T09:27:29.963Z,101814.81
2022-09-06T09:32:50.627Z,101812.17
2022-09-06T09:35:31.861Z,101810.41
2022-09-06T09:38:12.087Z,101805.38
2022-09-06T09:40:53.379Z,101802.86
2022-09-06T09:43:34.534Z,101795.75
2022-09-06T09:46:11.271Z,101794.27
2022-09-06T09:48:44.215Z,101794.16
2022-09-06T09:51:27.821Z,101791.20
2022-09-06T09:53:59.513Z,101794.65
2022-09-06T09:56:35.337Z,101790.05
2022-09-06T09:59:15.901Z,101788.08
2022-09-06T10:01:45.229Z,101782.88
2022-09-06T10:07:18.212Z,101784.23
2022-09-06T10:10:11.487Z,101780.48
2022-09-06T10:12:43.471Z,101780.36
2022-09-06T10:15:32.808Z,101782.41
2022-09-06T10:18:01.601Z,101780.94
2022-09-06T10:20:44.407Z,101779.39
2022-09-06T10:26:17.323Z,101779.79
2022-09-06T10:28:46.417Z,101779.27
2022-09-06T10:31:30.724Z,101778.25
2022-09-06T10:34:40.020Z,101769.69
2022-09-06T10:37:11.563Z,101773.55
2022-09-06T10:40:09.084Z,101776.11
2022-09-06T10:42:54.826Z,101769.05
2022-09-06T10:45:36.605Z,101770.66
2022-09-06T10:48:30.289Z,101760.63
2022-09-06T10:51:07.259Z,101756.11
2022-09-06T10:53:48.337Z,101752.09
2022-09-06T10:56:22.893Z,101746.59
2022-09-06T11:02:21.027Z,101743.69
2022-09-06T11:10:38.956Z,101736.51
2022-09-06T11:13:20.323Z,101734.13
2022-09-06T11:16:30.695Z,101732.98
2022-09-06T11:19:05.588Z,101733.33
2022-09-06T11:21:34.137Z,101734.59
2022-09-06T11:24:13.853Z,101736.20
2022-09-06T11:27:03.734Z,101731.25
2022-09-06T11:29:33.808Z,101728.86
2022-09-06T11:32:20.841Z,101727.45
2022-09-06T11:34:56.310Z,101721.82
2022-09-06T11:37:35.659Z,101720.48
2022-09-06T11:40:27.405Z,101719.09
2022-09-06T11:42:59.747Z,101717.43
2022-09-06T11:45:53.028Z,101717.97
2022-09-06T11:48:24.770Z,101712.69
2022-09-06T11:50:59.674Z,101710.14
2022-09-06T11:53:30.353Z,101710.59
2022-09-06T11:55:58.915Z,101707.95
2022-09-06T11:58:33.138Z,101709.85
2022-09-06T12:01:14.134Z,101704.51
2022-09-06T12:04:05.560Z,101701.17
2022-09-06T12:06:44.254Z,101699.54
2022-09-06T12:09:52.153Z,101700.83
2022-09-06T12:12:59.445Z,101696.86
2022-09-06T12:15:31.352Z,101693.44
2022-09-06T12:18:01.021Z,101693.13
2022-09-06T12:20:48.344Z,101690.28
2022-09-06T12:23:35.261Z,101686.95
2022-09-06T12:26:06.095Z,101687.88
2022-09-06T12:28:47.499Z,101683.25
2022-09-06T12:31:30.354Z,101681.31
2022-09-06T12:33:59.773Z,101681.11
2022-09-06T12:36:31.974Z,101674.88
2022-09-06T12:39:14.784Z,101671.60
2022-09-06T12:41:50.531Z,101669.89
2022-09-06T12:44:39.738Z,101671.98
2022-09-06T12:47:26.063Z,101674.34
2022-09-06T12:50:18.247Z,101675.95
2022-09-06T12:52:59.800Z,101673.73
2022-09-06T12:55:38.786Z,101675.23
2022-09-06T12:58:10.174Z,101674.56
2022-09-06T13:00:41.962Z,101672.38
2022-09-06T13:03:22.689Z,101672.14
2022-09-06T13:05:53.176Z,101672.00
2022-09-06T13:08:40.086Z,101670.09
2022-09-06T13:11:13.888Z,101663.89
2022-09-06T13:13:49.451Z,101657.25
2022-09-06T13:16:27.848Z,101654.05
2022-09-06T13:19:12.100Z,101651.92
2022-09-06T13:21:43.007Z,101648.20
2022-09-06T13:24:23.397Z,101647.49
2022-09-06T13:26:53.292Z,101643.05
2022-09-06T13:29:30.975Z,101643.59
2022-09-06T13:32:02.693Z,101638.50
2022-09-06T13:34:34.098Z,101639.63
2022-09-06T13:37:06.764Z,101634.30
2022-09-06T13:39:41.685Z,101638.06
2022-09-06T13:42:24.093Z,101640.17
2022-09-06T13:44:53.064Z,101636.42
2022-09-06T13:47:21.823Z,101630.79
2022-09-06T13:49:52.557Z,101629.58
2022-09-06T13:52:22.883Z,101630.23
2022-09-06T13:54:51.568Z,101628.45
2022-09-06T13:57:24.449Z,101627.22
2022-09-06T13:59:53.453Z,101624.24
2022-09-06T14:02:22.354Z,101620.53
2022-09-06T14:04:51.540Z,101619.38
2022-09-06T14:07:20.325Z,101615.79
2022-09-06T14:09:50.595Z,101616.56
2022-09-06T14:12:19.771Z,101614.16
2022-09-06T14:14:48.545Z,101612.38
2022-09-06T14:17:17.945Z,101615.83
2022-09-06T14:19:46.932Z,101616.73
2022-09-06T14:22:15.629Z,101615.19
2022-09-06T14:24:44.343Z,101611.38
2022-09-06T14:27:13.199Z,101610.27
2022-09-06T14:29:42.603Z,101610.55
2022-09-06T14:32:11.529Z,101604.98
2022-09-06T14:34:40.180Z,101601.17
2022-09-06T14:37:13.328Z,101600.10
2022-09-06T14:39:42.822Z,101597.18
2022-09-06T14:42:12.082Z,101593.67
2022-09-06T14:44:40.762Z,101594.05
2022-09-06T14:47:09.855Z,101594.48
2022-09-06T14:49:38.570Z,101594.36
2022-09-06T14:52:07.131Z,101591.93
2022-09-06T14:54:35.923Z,101586.67
2022-09-06T14:57:05.044Z,101584.67
2022-09-06T14:59:33.861Z,101581.09
2022-09-06T15:02:02.612Z,101581.02
2022-09-06T15:04:31.485Z,101583.56
2022-09-06T15:07:01.243Z,101583.30
2022-09-06T15:09:30.392Z,101587.28
2022-09-06T15:11:59.300Z,101583.08
2022-09-06T15:14:31.776Z,101581.73
2022-09-06T15:17:01.028Z,101580.56
2022-09-06T15:19:30.802Z,101580.66
2022-09-06T15:22:00.283Z,101578.80
2022-09-06T15:24:29.487Z,101578.20
2022-09-06T15:26:59.008Z,101576.52
2022-09-06T15:29:27.875Z,101575.38
2022-09-06T15:31:57.698Z,101574.79
2022-09-06T15:34:27.094Z,101579.88
2022-09-06T15:36:57.006Z,101580.19
2022-09-06T15:39:25.881Z,101579.77
2022-09-06T15:41:55.040Z,101579.12
2022-09-06T15:44:23.799Z,101579.42
2022-09-06T15:46:58.441Z,101576.93
2022-09-06T15:49:29.586Z,101579.36
2022-09-06T15:52:01.355Z,101580.02
2022-09-06T15:54:49.255Z,101581.02
2022-09-06T15:57:18.495Z,101582.64
2022-09-06T15:59:47.717Z,101585.10
2022-09-06T16:02:16.687Z,101583.14
2022-09-06T16:04:46.462Z,101576.71
2022-09-06T16:07:15.349Z,101571.48
2022-09-06T16:09:44.145Z,101569.11
2022-09-06T16:12:12.976Z,101568.87
2022-09-06T16:14:41.619Z,101569.02
2022-09-06T16:17:12.114Z,101570.55
2022-09-06T16:19:40.781Z,101576.38
2022-09-06T16:22:09.339Z,101577.07
2022-09-06T16:24:37.876Z,101576.15
2022-09-06T16:27:06.342Z,101579.16
2022-09-06T16:29:34.885Z,101576.32
2022-09-06T16:32:03.642Z,101570.83
2022-09-06T16:34:32.578Z,101569.92
2022-09-06T16:37:04.560Z,101570.20
2022-09-06T16:39:33.361Z,101576.67
2022-09-06T16:42:02.483Z,101578.59
2022-09-06T16:44:31.479Z,101581.92
2022-09-06T16:47:04.276Z,101582.58
2022-09-06T16:49:32.969Z,101585.08
2022-09-06T16:52:01.942Z,101587.90
2022-09-06T16:54:30.843Z,101588.20
2022-09-06T16:57:01.791Z,101590.06
2022-09-06T16:59:30.458Z,101593.17
2022-09-06T17:01:59.402Z,101597.23
2022-09-06T17:04:28.347Z,101600.40
2022-09-06T17:06:57.029Z,101600.39
2022-09-06T17:09:25.922Z,101601.23
2022-09-06T17:11:54.541Z,101602.98
2022-09-06T17:14:24.727Z,101608.96
2022-09-06T17:17:05.502Z,101611.02
2022-09-06T17:19:41.662Z,101611.85
2022-09-06T17:22:12.956Z,101615.14
2022-09-06T17:24:42.561Z,101615.39
2022-09-06T17:27:11.714Z,101618.69
2022-09-06T17:29:40.608Z,101616.66
2022-09-06T17:32:10.910Z,101619.77
2022-09-06T17:34:41.137Z,101619.13
2022-09-06T17:37:13.130Z,101618.29
2022-09-06T17:39:42.850Z,101618.71
2022-09-06T17:42:14.182Z,101621.58
2022-09-06T17:44:43.681Z,101621.48
2022-09-06T17:47:13.599Z,101622.63
2022-09-06T17:49:43.725Z,101624.65
2022-09-06T17:52:13.025Z,101630.95
2022-09-06T17:54:42.128Z,101628.02
2022-09-06T17:57:11.016Z,101633.05
2022-09-06T17:59:39.942Z,101639.67
2022-09-06T18:02:09.202Z,101641.34
2022-09-06T18:04:38.329Z,101640.17
2022-09-06T18:07:06.980Z,101640.58
2022-09-06T18:09:37.411Z,101642.73
2022-09-06T18:12:07.425Z,101644.52
2022-09-06T18:14:36.875Z,101647.21
2022-09-06T18:17:05.533Z,101650.09
2022-09-06T18:19:34.620Z,101653.83
2022-09-06T18:22:04.971Z,101656.00
2022-09-06T18:24:33.641Z,101658.50
2022-09-06T18:27:03.229Z,101660.34
2022-09-06T18:29:32.052Z,101658.43
2022-09-06T18:32:01.189Z,101653.86
2022-09-06T18:34:30.039Z,101651.42
2022-09-06T18:36:59.314Z,101655.00
2022-09-06T18:39:28.386Z,101655.58
2022-09-06T18:42:00.474Z,101655.48
2022-09-06T18:44:32.594Z,101657.27
2022-09-06T18:47:04.054Z,101651.84
2022-09-06T18:49:34.418Z,101649.58
2022-09-06T18:52:05.261Z,101648.38
2022-09-06T18:54:35.225Z,101650.15
2022-09-06T18:57:04.675Z,101650.21
2022-09-06T18:59:33.595Z,101650.22
2022-09-06T19:02:02.279Z,101653.23
2022-09-06T19:04:31.473Z,101654.66
2022-09-06T19:07:03.108Z,101652.19
2022-09-06T19:09:31.899Z,101651.15
2022-09-06T19:12:00.829Z,101655.13
2022-09-06T19:14:30.033Z,101663.86
2022-09-06T19:16:58.571Z,101665.55
2022-09-06T19:19:27.676Z,101663.52
2022-09-06T19:21:56.607Z,101666.44
2022-09-06T19:24:26.067Z,101669.59
2022-09-06T19:26:55.694Z,101665.22
2022-09-06T19:29:24.601Z,101663.65
2022-09-06T19:31:54.815Z,101659.41
2022-09-06T19:34:23.678Z,101657.63
2022-09-06T19:36:55.578Z,101657.42
2022-09-06T19:39:33.523Z,101657.55
2022-09-06T19:42:06.248Z,101655.40
2022-09-06T19:44:35.215Z,101650.09
2022-09-06T19:47:03.929Z,101650.27
2022-09-06T19:49:32.944Z,101652.71
2022-09-06T19:52:09.758Z,101650.63
2022-09-06T19:54:39.463Z,101650.66
2022-09-06T19:57:08.183Z,101648.00
2022-09-06T19:59:38.046Z,101646.97
2022-09-06T20:02:07.152Z,101651.07
2022-09-06T20:04:35.939Z,101646.67
2022-09-06T20:07:04.483Z,101642.30
2022-09-06T20:09:33.243Z,101644.44
2022-09-06T20:12:02.148Z,101644.48
2022-09-06T20:14:30.864Z,101647.36
2022-09-06T20:17:16.486Z,101647.23
2022-09-06T20:19:49.395Z,101645.31
2022-09-06T20:22:18.211Z,101645.91
2022-09-06T20:24:47.174Z,101647.72
2022-09-06T20:27:16.406Z,101647.42
2022-09-06T20:29:45.569Z,101654.79
2022-09-06T20:32:15.181Z,101656.66
2022-09-06T20:34:44.888Z,101660.09
2022-09-06T20:37:13.781Z,101662.05
2022-09-06T20:39:42.387Z,101661.70
2022-09-06T20:42:11.021Z,101657.14
2022-09-06T20:44:39.706Z,101660.35
2022-09-06T20:47:08.521Z,101661.95
2022-09-06T20:49:37.316Z,101662.01
2022-09-06T20:52:05.983Z,101663.04
2022-09-06T20:54:34.695Z,101665.20
2022-09-06T20:57:03.296Z,101662.42
2022-09-06T20:59:32.062Z,101663.35
2022-09-06T21:02:01.145Z,101663.61
2022-09-06T21:04:30.187Z,101668.27
2022-09-06T21:06:58.944Z,101671.11
2022-09-06T21:09:27.836Z,101676.96
2022-09-06T21:11:57.973Z,101683.71
2022-09-06T21:14:26.799Z,101684.82
2022-09-06T21:16:55.633Z,101684.17
2022-09-06T21:19:25.666Z,101684.77
2022-09-06T21:21:54.589Z,101691.50
2022-09-06T21:24:23.539Z,101689.36
2022-09-06T21:26:52.222Z,101684.86
2022-09-06T21:29:21.119Z,101685.73
2022-09-06T21:31:51.125Z,101682.41
2022-09-06T21:34:19.843Z,101681.88
2022-09-06T21:36:48.360Z,101682.45
2022-09-06T21:39:17.012Z,101676.32
2022-09-06T21:41:46.099Z,101677.46
2022-09-06T21:44:14.923Z,101676.48
2022-09-06T21:46:43.740Z,101676.17
2022-09-06T21:49:13.895Z,101676.08
2022-09-06T21:51:43.113Z,101673.31
2022-09-06T21:54:12.076Z,101668.02
2022-09-06T21:56:41.787Z,101671.84
2022-09-06T21:59:11.175Z,101668.80
2022-09-06T22:01:44.908Z,101670.30
2022-09-06T22:04:14.709Z,101670.04
2022-09-06T22:06:44.982Z,101668.65
2022-09-06T22:09:14.642Z,101668.04
2022-09-06T22:11:44.970Z,101673.22
2022-09-06T22:14:14.781Z,101678.20
2022-09-06T22:16:43.860Z,101681.19
2022-09-06T22:19:13.038Z,101683.31
2022-09-06T22:21:41.475Z,101690.55
2022-09-06T22:24:12.100Z,101693.65
2022-09-06T22:26:42.104Z,101696.70
2022-09-06T22:29:13.808Z,101694.13
2022-09-06T22:31:43.269Z,101688.52
2022-09-06T22:34:12.301Z,101687.65
2022-09-06T22:36:41.254Z,101685.38
2022-09-06T22:39:09.864Z,101688.40
2022-09-06T22:41:38.900Z,101693.42
2022-09-06T22:44:07.724Z,101694.59
2022-09-06T22:46:37.522Z,101691.98
2022-09-06T22:49:06.632Z,101694.44
2022-09-06T22:51:35.469Z,101692.51
2022-09-06T22:54:05.029Z,101686.88
2022-09-06T22:56:34.134Z,101685.38
2022-09-06T22:59:03.841Z,101684.52
2022-09-06T23:01:38.900Z,101686.02
2022-09-06T23:04:09.079Z,101683.58
2022-09-06T23:06:37.987Z,101686.94
2022-09-06T23:09:06.879Z,101689.96
2022-09-06T23:11:35.499Z,101692.95
2022-09-06T23:14:05.375Z,101695.25
2022-09-06T23:16:34.151Z,101692.99
2022-09-06T23:19:03.082Z,101689.73
2022-09-06T23:21:32.923Z,101686.63
2022-09-06T23:24:01.863Z,101678.77
2022-09-06T23:26:32.700Z,101673.35
2022-09-06T23:29:02.095Z,101670.23
2022-09-06T23:31:32.827Z,101671.50
2022-09-06T23:34:03.061Z,101676.85
2022-09-06T23:36:32.696Z,101676.36
2022-09-06T23:39:02.762Z,101678.67
2022-09-06T23:41:31.618Z,101680.44
2022-09-06T23:44:00.878Z,101679.73
2022-09-06T23:46:30.171Z,101679.98
2022-09-06T23:48:59.281Z,101680.90
2022-09-06T23:51:28.011Z,101678.30
2022-09-06T23:53:56.760Z,101678.38
2022-09-06T23:56:25.665Z,101679.87
2022-09-06T23:58:54.474Z,101679.88
